Grey Eagle, MN (56336)

1:57 AM CDT on July 29, 2014 (GMT -0500)
KMNGREYE2 Elev 1214 ft | 45.83 °N, 94.75 °W | Change Station

Current weather conditions updated 2 minutes ago

Clear
Clear
57.4 °F
Feels Like 57.4 °F
N
0.0
Wind Variable Wind from NNE

Today is forecast to be nearly the same temperature as yesterday.

Today
High -- | Low -- °F
--% Chance of Precip.
Yesterday
High -- | Low -- °F
Precip. -- in
5:58 AM 8:51 PM
Waxing Crescent, 5% visible
Pressure 30.18 in
Visibility 10.0 miles
Clouds Clear
Dew Point 53 °F
Humidity 84%
Rainfall 0.00 in
Snow Depth Not available.
UV 0 out of 12
Pollen 6.40 out of 12
Air Quality Not available.
Flu Activity Not available.
METAR K14Y 290657Z AUTO 31003KT 10SM CLR 13/11 A3018 RMK AO2

More Conditions Fewer Conditions

Pressure 30.18 in
Visibility 10.0 miles
Clouds Clear
Dew Point 53 °F
Humidity 84%
Rainfall 0.00 in
Snow Depth Not available.
UV 0 out of 12
Pollen 6.40 out of 12
Air Quality Not available.
Flu Activity Not available.
METAR K14Y 290657Z AUTO 31003KT 10SM CLR 13/11 A3018 RMK AO2

More Conditions Fewer Conditions

10-Day Weather Forecast

Almanac

Astronomy

Jul. 29, 2014 Rise Set
Actual Time 5:58 AM CDT 8:51 PM CDT
Civil Twilight 5:23 AM CDT 9:26 PM CDT
Nautical Twilight 4:39 AM CDT 10:10 PM CDT
Astronomical Twilight 3:46 AM CDT 11:02 PM CDT
Moon 8:46 AM CDT 9:51 PM CDT
Length of Visible Light 16h 02m
Length of Day
14h 53m
Tomorrow will be 2m 25s shorter.
Waxing Crescent, 5% of the Moon is Illuminated
Today
Waxing Crescent
Aug 3
First Quarter
Aug 10
Full
Aug 17
Last Quarter
Aug 25
New

Today's Extremes

State Highs State Lows

Community

WunderPhotos

Upload Photos

1,738,651 photos uploaded!

Nearby

Snow Depth

Station Depth Elevation
No new snow has been reported.

Earthquake Activity

City Distance Mag. Time & Date
No recent earthquake activity has been reported nearby.
Minimum magnitude displayed is 2.5.

Coastal Water Temperatures

Place Temperature
No Stations Reporting

Nearby Weather Stations

Station Location Temp. Dew Point Humidity Wind Precip. Elev Updated Type
Grey Eagle, MN 57.4 °F 53 °F 84% NNE  at  0.0 mph - / hr 1214 ft 1:55 AM CDT Normal
Swanville, Swanville, MN 54.6 °F 52 °F 91% WNW  at  0.0 mph 0.00 in / hr 1158 ft 1:57 AM CDT Rapid Fire
Sauk Centre, Sauk Centre, MN 55.6 °F 53 °F 90% West  at  0.0 mph 0.00 in / hr 1253 ft 1:57 AM CDT Rapid Fire
Lake Beauty, Long Prairie, MN 60.9 °F 57 °F 88% NNE  at  0.0 mph 0.00 in / hr 1219 ft 1:55 AM CDT Normal
barley rd nw, Royalton, MN 57.7 °F 55 °F 92% WSW  at  0.0 mph - / hr 1047 ft 1:43 AM CDT Normal
Riverwood Court, Randall, MN 55.7 °F 52 °F 88% NW  at  0.0 mph 0.00 in / hr 1173 ft 1:57 AM CDT Rapid Fire
Saint Johns University Campus, Collegeville, MN 61.4 °F 56 °F 81% NW  at  0.0 mph 0.00 in / hr 1200 ft 1:56 AM CDT Rapid Fire

Show More Stations Show Fewer Stations